Time;durP1;ratioP1;P1;durP2;ratioP2;P2;SDS_P1;SDS_P2;PMS_P1;PMS_P2;Temp;Humidity;BMP_temperature;BMP_pressure;BME280_temperature;BME280_humidity;BME280_pressure;Samples;Min_cycle;Max_cycle;Signal;HPM_P1;HPM_P2
2022/06/06 00:02:32;;;;;;;;;4.67;4.00;;;;;19.90;59.90;101314.78;5096760;27;45550;-75
2022/06/06 00:04:58;;;;;;;;;4.67;4.67;;;;;19.47;60.49;101244.19;5085543;27;45357;-76
2022/06/06 00:07:25;;;;;;;;;5.00;5.00;;;;;19.73;60.44;101305.56;5088026;27;45341;-77
2022/06/06 00:09:51;;;;;;;;;7.00;6.00;;;;;19.71;60.28;101316.22;5099481;27;45314;-75
2022/06/06 00:12:17;;;;;;;;;4.33;4.33;;;;;19.33;60.83;101259.63;5100779;27;45389;-78
2022/06/06 00:14:44;;;;;;;;;5.00;5.00;;;;;19.56;60.15;101308.63;5101933;27;45510;-75
2022/06/06 00:17:09;;;;;;;;;6.00;5.33;;;;;19.31;60.38;101276.50;5100702;27;45424;-76
2022/06/06 00:19:35;;;;;;;;;5.00;5.00;;;;;19.31;60.39;101274.72;5097526;27;45473;-74
2022/06/06 00:22:01;;;;;;;;;5.67;5.00;;;;;19.57;59.74;101315.69;5096737;27;45357;-76
2022/06/06 00:24:28;;;;;;;;;6.00;5.00;;;;;19.39;59.54;101280.72;5083199;27;45297;-76
2022/06/06 00:26:54;;;;;;;;;5.00;5.00;;;;;19.62;59.92;101322.63;5088643;27;45397;-78
2022/06/06 00:29:21;;;;;;;;;7.67;6.00;;;;;19.18;59.62;101250.25;5093349;27;45301;-76
2022/06/06 00:34:49;;;;;;;;;5.00;5.00;;;;;19.45;60.23;101320.38;5089082;27;45339;-75
2022/06/06 00:37:19;;;;;;;;;6.00;6.00;;;;;19.38;60.42;101308.16;5086339;27;45549;-74
2022/06/06 00:39:46;;;;;;;;;5.00;5.00;;;;;18.86;61.09;101248.41;5088185;27;45282;-77
2022/06/06 00:42:27;;;;;;;;;5.00;5.00;;;;;19.05;60.91;101278.91;5120363;27;47666;-76
2022/06/06 00:45:18;;;;;;;;;6.00;4.00;;;;;19.28;60.52;101304.00;5098520;27;45496;-77
2022/06/06 00:48:07;;;;;;;;;7.00;6.00;;;;;18.96;60.58;101249.94;5101296;27;45450;-76
2022/06/06 00:51:05;;;;;;;;;7.00;5.00;;;;;18.77;61.09;101227.38;5094760;27;45357;-74
2022/06/06 00:53:50;;;;;;;;;6.00;4.33;;;;;19.03;61.30;101288.69;5096793;27;46548;-74
2022/06/06 00:56:50;;;;;;;;;6.00;4.00;;;;;19.06;61.43;101293.94;5099194;27;45563;-75
2022/06/06 00:59:21;;;;;;;;;5.33;5.33;;;;;19.10;61.20;101291.19;5054298;27;45809;-76
2022/06/06 01:01:51;;;;;;;;;6.33;5.33;;;;;19.05;61.22;101283.34;5086987;27;45337;-74
2022/06/06 01:04:21;;;;;;;;;6.00;6.00;;;;;18.97;60.77;101283.53;5098200;27;46166;-75
2022/06/06 01:06:47;;;;;;;;;9.00;6.00;;;;;18.98;61.65;101290.59;5098192;27;45495;-76
2022/06/06 01:09:18;;;;;;;;;6.00;4.33;;;;;18.98;61.40;101295.91;5098588;27;45797;-76
2022/06/06 01:12:01;;;;;;;;;6.00;6.00;;;;;19.02;61.44;101289.59;5097009;27;45591;-75
2022/06/06 01:14:32;;;;;;;;;6.67;6.67;;;;;18.96;61.30;101273.84;5098602;27;45539;-76
2022/06/06 01:16:57;;;;;;;;;6.67;6.67;;;;;19.04;61.01;101277.16;5114117;27;45351;-74
2022/06/06 01:19:44;;;;;;;;;9.00;7.67;;;;;18.84;61.75;101271.47;5098939;27;45435;-74
2022/06/06 01:22:33;;;;;;;;;6.00;6.00;;;;;18.81;61.18;101276.84;5103763;27;45355;-77
2022/06/06 01:25:35;;;;;;;;;6.00;6.00;;;;;18.80;61.45;101262.69;5098159;27;45659;-73
2022/06/06 01:28:01;;;;;;;;;4.00;3.67;;;;;18.95;61.54;101273.84;5086608;27;45357;-72
2022/06/06 01:30:37;;;;;;;;;8.67;6.00;;;;;18.91;61.87;101262.47;5097623;27;45389;-75
2022/06/06 01:33:04;;;;;;;;;7.33;7.33;;;;;19.04;61.40;101279.81;5098431;27;45195;-73
2022/06/06 01:35:34;;;;;;;;;6.33;6.00;;;;;19.02;61.82;101272.78;5097673;27;46243;-72
2022/06/06 01:38:00;;;;;;;;;7.00;7.00;;;;;19.00;61.62;101278.13;5098373;27;45389;-74
2022/06/06 01:40:39;;;;;;;;;8.00;6.00;;;;;18.85;61.93;101246.66;5098122;27;45464;-74
2022/06/06 01:43:13;;;;;;;;;10.33;8.00;;;;;18.83;61.87;101244.03;5102586;27;45444;-74
2022/06/06 01:45:56;;;;;;;;;10.00;7.00;;;;;19.02;61.56;101278.97;5105360;27;45512;-77
2022/06/06 01:48:29;;;;;;;;;7.00;6.33;;;;;18.72;61.75;101237.22;5103246;27;45377;-72
2022/06/06 01:50:55;;;;;;;;;7.67;7.67;;;;;18.97;62.00;101275.56;5101694;27;45317;-75
2022/06/06 01:53:23;;;;;;;;;7.67;7.67;;;;;18.73;62.22;101233.66;5114993;27;45408;-74
2022/06/06 01:55:51;;;;;;;;;9.00;6.33;;;;;18.91;61.49;101275.72;5096808;27;47223;-75
2022/06/06 01:58:22;;;;;;;;;6.67;6.67;;;;;18.61;61.60;101222.44;5101590;27;45439;-73
2022/06/06 02:00:48;;;;;;;;;12.00;10.00;;;;;18.65;61.99;101242.69;5103993;27;45567;-78
2022/06/06 02:03:14;;;;;;;;;7.00;7.00;;;;;18.77;61.59;101238.91;5101431;27;45405;-75
2022/06/06 02:05:41;;;;;;;;;8.67;8.67;;;;;18.90;61.55;101266.00;5101781;27;47531;-75
2022/06/06 02:08:08;;;;;;;;;9.67;8.33;;;;;18.61;61.59;101213.59;5100757;27;45472;-75
2022/06/06 02:10:34;;;;;;;;;8.00;6.00;;;;;18.85;61.45;101250.19;5101059;27;45491;-72
2022/06/06 02:12:59;;;;;;;;;7.00;7.00;;;;;18.49;61.40;101193.53;5101025;27;45516;-73
2022/06/06 02:15:26;;;;;;;;;7.33;6.00;;;;;18.80;61.29;101257.41;5086070;27;46415;-74
2022/06/06 02:17:54;;;;;;;;;8.67;7.00;;;;;18.39;61.50;101192.88;5100946;27;45487;-73
2022/06/06 02:20:23;;;;;;;;;6.00;4.67;;;;;18.90;60.26;101270.44;5116629;27;45423;-72
2022/06/06 02:22:49;;;;;;;;;6.00;5.00;;;;;18.63;59.97;101215.31;5095652;27;45220;-73
2022/06/06 02:25:15;;;;;;;;;5.00;5.00;;;;;18.86;59.77;101243.09;5090922;27;46412;-73
2022/06/06 02:27:42;;;;;;;;;4.00;4.00;;;;;18.97;59.22;101264.94;5100632;27;45473;-73
2022/06/06 02:30:14;;;;;;;;;6.67;5.00;;;;;19.00;58.83;101253.38;5100674;27;45458;-72
2022/06/06 02:32:41;;;;;;;;;5.00;5.00;;;;;19.01;58.70;101263.09;5101146;27;45408;-75
2022/06/06 02:35:13;;;;;;;;;5.00;5.00;;;;;18.90;58.62;101236.81;5100912;27;45395;-76
2022/06/06 02:37:40;;;;;;;;;4.00;4.00;;;;;19.04;58.41;101257.72;5101393;27;45489;-79
2022/06/06 02:40:09;;;;;;;;;5.00;5.00;;;;;18.75;58.26;101213.28;5094854;27;45438;-74
2022/06/06 02:42:36;;;;;;;;;5.00;5.00;;;;;18.72;58.33;101215.97;5095577;27;45471;-77
2022/06/06 02:45:05;;;;;;;;;7.00;4.00;;;;;18.98;58.19;101261.41;5101346;27;46449;-76
2022/06/06 02:47:31;;;;;;;;;5.33;4.33;;;;;18.77;58.20;101227.38;5101281;27;45172;-78
2022/06/06 02:49:57;;;;;;;;;2.67;2.67;;;;;18.90;57.43;101246.56;5101654;27;45418;-76
2022/06/06 02:52:22;;;;;;;;;5.00;4.00;;;;;18.71;57.37;101222.22;5101630;27;45321;-79
2022/06/06 02:54:48;;;;;;;;;4.00;4.00;;;;;18.34;57.55;101162.97;5117958;27;47005;-77
2022/06/06 02:57:14;;;;;;;;;4.00;4.00;;;;;18.50;57.33;101178.50;5101722;27;45483;-76
2022/06/06 02:59:43;;;;;;;;;4.00;4.00;;;;;18.83;57.64;101236.06;5101460;27;45518;-76
2022/06/06 03:02:09;;;;;;;;;4.00;4.00;;;;;18.49;57.39;101174.97;5087199;27;45429;-76
2022/06/06 03:04:37;;;;;;;;;4.00;4.00;;;;;18.63;57.02;101201.19;5100503;27;45443;-78
2022/06/06 03:07:21;;;;;;;;;3.00;3.00;;;;;18.96;56.88;101251.69;5100509;27;45525;-78
2022/06/06 03:10:09;;;;;;;;;4.00;4.00;;;;;18.73;56.94;101215.97;5100803;27;45534;-74
2022/06/06 03:12:51;;;;;;;;;3.00;3.00;;;;;18.31;56.49;101157.69;5089289;27;45525;-75
2022/06/06 03:15:22;;;;;;;;;3.33;3.33;;;;;18.87;56.54;101260.78;5085690;27;45627;-75
2022/06/06 03:21:27;;;;;;;;;2.33;2.33;;;;;18.83;55.95;101280.31;5101354;27;45438;-75
2022/06/06 03:24:17;;;;;;;;;2.67;2.67;;;;;18.83;55.44;101262.63;5100154;27;45530;-78
2022/06/06 03:27:20;;;;;;;;;2.00;2.00;;;;;18.82;55.47;101276.81;5100328;27;45507;-78
2022/06/06 03:30:14;;;;;;;;;3.00;3.00;;;;;18.81;55.33;101263.56;5088532;27;45480;-75
2022/06/06 03:33:08;;;;;;;;;3.00;3.00;;;;;18.79;55.69;101270.69;5079695;27;45437;-79
2022/06/06 03:35:39;;;;;;;;;2.00;2.00;;;;;18.44;56.56;101227.25;5100258;27;45553;-76
2022/06/06 03:38:14;;;;;;;;;4.00;3.00;;;;;18.64;56.18;101270.09;5100717;27;46533;-77
2022/06/06 03:40:58;;;;;;;;;4.33;3.00;;;;;18.60;56.76;101270.22;5101096;27;45233;-78
2022/06/06 03:43:47;;;;;;;;;3.33;3.33;;;;;18.58;56.83;101272.00;5103356;27;45379;-73
2022/06/06 03:46:34;;;;;;;;;5.00;3.00;;;;;18.55;57.26;101280.06;5101779;27;45564;-75
2022/06/06 03:49:11;;;;;;;;;3.00;3.00;;;;;18.56;57.02;101280.03;5102083;27;46258;-75
2022/06/06 03:52:00;;;;;;;;;3.33;2.00;;;;;18.49;56.78;101267.81;5087786;27;45363;-75
2022/06/06 03:54:37;;;;;;;;;3.00;3.00;;;;;18.57;56.64;101264.97;5101860;27;45372;-76
2022/06/06 03:57:18;;;;;;;;;1.67;1.67;;;;;18.57;56.49;101279.09;5100093;27;45449;-76
2022/06/06 03:59:47;;;;;;;;;3.00;3.00;;;;;18.54;57.40;101284.50;5098869;27;46348;-78
2022/06/06 04:02:22;;;;;;;;;6.00;4.67;;;;;18.54;56.76;101281.84;5099501;27;45527;-75
2022/06/06 04:04:49;;;;;;;;;2.00;2.00;;;;;18.54;56.92;101284.50;5100467;27;45289;-77
2022/06/06 04:07:15;;;;;;;;;7.67;4.00;;;;;17.87;56.84;101179.88;5100448;27;45237;-79
2022/06/06 04:09:40;;;;;;;;;3.00;3.00;;;;;17.81;56.69;101165.00;5099198;27;46363;-76
2022/06/06 04:12:42;;;;;;;;;4.00;3.00;;;;;18.44;56.63;101278.53;5097928;27;46328;-73
2022/06/06 04:15:37;;;;;;;;;5.33;4.00;;;;;18.36;56.54;101261.03;5084340;27;45518;-74
2022/06/06 04:18:23;;;;;;;;;4.00;4.00;;;;;17.96;56.30;101199.16;5109246;27;45568;-75
2022/06/06 04:21:17;;;;;;;;;3.00;2.00;;;;;18.56;56.29;101297.72;5097618;27;46575;-75
2022/06/06 04:24:20;;;;;;;;;5.00;5.00;;;;;18.42;56.78;101280.31;5098401;27;45556;-75
2022/06/06 04:27:02;;;;;;;;;3.00;3.00;;;;;18.56;56.28;101301.25;5097835;27;45566;-76
2022/06/06 04:29:46;;;;;;;;;5.00;4.00;;;;;18.54;56.82;101305.72;5098583;27;45436;-76
2022/06/06 04:32:24;;;;;;;;;3.67;3.67;;;;;18.06;56.32;101221.03;5098670;27;46424;-77
2022/06/06 04:35:09;;;;;;;;;4.00;4.00;;;;;18.12;56.38;101226.19;5099128;27;45405;-75
2022/06/06 04:37:54;;;;;;;;;4.00;3.67;;;;;18.58;56.65;101295.88;5114241;27;45279;-76
2022/06/06 04:40:37;;;;;;;;;2.00;2.00;;;;;18.20;56.57;101240.16;5103105;27;45376;-78
2022/06/06 04:43:19;;;;;;;;;2.00;2.00;;;;;18.26;56.19;101236.50;5098524;27;45479;-77
2022/06/06 04:45:52;;;;;;;;;4.00;2.33;;;;;18.42;56.41;101258.25;5098624;27;45461;-76
2022/06/06 04:48:20;;;;;;;;;4.00;4.00;;;;;18.64;56.88;101275.41;5099292;27;45693;-74
2022/06/06 04:50:46;;;;;;;;;11.00;11.00;;;;;18.70;58.14;101282.38;5098920;27;45472;-74
2022/06/06 04:53:17;;;;;;;;;6.00;6.00;;;;;18.81;57.34;101287.44;5096056;27;45475;-75
2022/06/06 04:55:46;;;;;;;;;3.33;3.00;;;;;18.77;56.60;101267.19;5098649;27;45386;-74
2022/06/06 04:58:15;;;;;;;;;3.67;3.00;;;;;19.01;55.38;101292.31;5098147;27;45267;-75
2022/06/06 05:00:42;;;;;;;;;2.33;1.67;;;;;19.02;55.14;101292.25;5098625;27;45456;-72
2022/06/06 05:03:08;;;;;;;;;2.00;2.00;;;;;19.02;54.83;101299.34;5097997;27;45521;-78
2022/06/06 05:06:03;;;;;;;;;1.67;1.67;;;;;18.99;54.40;101292.34;5098468;27;45539;-77
2022/06/06 05:08:44;;;;;;;;;1.00;1.00;;;;;18.94;54.28;101291.56;5069824;27;45477;-76
2022/06/06 05:11:45;;;;;;;;;1.33;1.33;;;;;18.78;54.19;101264.50;5079738;27;46527;-75
2022/06/06 05:14:44;;;;;;;;;2.00;2.00;;;;;18.89;54.32;101288.16;5081049;27;45543;-73
2022/06/06 05:17:21;;;;;;;;;2.33;1.00;;;;;18.92;54.00;101298.69;5077390;27;45362;-76
2022/06/06 05:20:27;;;;;;;;;1.00;1.00;;;;;18.87;53.76;101295.28;5095281;27;45449;-77
2022/06/06 05:23:20;;;;;;;;;0.33;0.33;;;;;18.89;53.86;101296.13;5082529;27;45540;-77
2022/06/06 05:26:11;;;;;;;;;1.67;1.67;;;;;18.88;53.83;101286.41;5088793;27;46266;-78
2022/06/06 05:29:12;;;;;;;;;1.00;1.00;;;;;19.00;53.59;101295.84;5078271;27;45321;-78
2022/06/06 05:32:29;;;;;;;;;0.67;0.67;;;;;19.14;53.35;101303.50;5093089;27;45414;-77
2022/06/06 05:35:06;;;;;;;;;1.00;1.00;;;;;19.12;53.00;101294.69;5055026;28;45942;-72
2022/06/06 05:37:52;;;;;;;;;1.00;1.00;;;;;19.25;53.25;101309.41;5095919;27;46040;-77
2022/06/06 05:40:36;;;;;;;;;3.00;1.00;;;;;19.30;52.81;101304.84;5097523;27;45479;-75
2022/06/06 05:43:36;;;;;;;;;0.33;0.33;;;;;19.31;52.79;101289.78;5081951;27;45442;-77
2022/06/06 05:46:35;;;;;;;;;1.00;1.00;;;;;19.44;52.11;101299.19;5096771;27;45579;-75
2022/06/06 05:49:22;;;;;;;;;1.00;1.00;;;;;19.52;52.02;101305.16;5097304;27;46173;-79
2022/06/06 05:52:11;;;;;;;;;1.33;0.00;;;;;19.60;52.31;101310.28;5097608;27;45402;-73
2022/06/06 05:54:57;;;;;;;;;1.00;1.00;;;;;19.64;51.89;101307.50;5088698;27;45328;-74
2022/06/06 05:57:47;;;;;;;;;1.00;1.00;;;;;19.61;51.86;101299.63;5097799;27;45517;-75
2022/06/06 06:00:30;;;;;;;;;3.67;2.00;;;;;19.73;51.70;101313.53;5096859;27;45401;-72
2022/06/06 06:03:32;;;;;;;;;1.00;1.00;;;;;19.78;51.58;101312.47;5095657;27;45837;-74
2022/06/06 06:06:21;;;;;;;;;1.33;1.33;;;;;19.83;51.38;101315.00;5082275;27;45375;-76
2022/06/06 06:08:59;;;;;;;;;1.33;1.33;;;;;19.86;51.55;101309.59;5083624;27;45552;-78
2022/06/06 06:12:03;;;;;;;;;2.33;1.00;;;;;19.91;51.34;101316.56;5110363;27;46459;-76
2022/06/06 06:14:49;;;;;;;;;2.00;2.00;;;;;20.06;50.90;101327.69;5088078;27;45448;-78
2022/06/06 06:17:23;;;;;;;;;5.67;4.00;;;;;20.11;50.85;101323.97;5087488;27;45318;-76
2022/06/06 06:20:06;;;;;;;;;3.33;3.33;;;;;20.18;51.05;101331.78;5090099;27;45501;-73
2022/06/06 06:22:56;;;;;;;;;3.33;2.00;;;;;20.11;50.97;101326.63;5095679;27;46209;-79
2022/06/06 06:25:24;;;;;;;;;1.00;1.00;;;;;20.23;51.05;101333.38;5085253;27;45416;-76
2022/06/06 06:27:56;;;;;;;;;2.00;2.00;;;;;20.22;50.90;101318.34;5085432;27;45419;-76
2022/06/06 06:30:31;;;;;;;;;1.67;1.67;;;;;20.32;50.54;101325.13;5088637;27;45404;-76
2022/06/06 06:33:38;;;;;;;;;2.00;1.00;;;;;20.28;50.39;101318.16;5088169;27;46063;-77
2022/06/06 06:36:22;;;;;;;;;2.00;2.00;;;;;20.26;50.52;101308.47;5088620;27;45640;-77
2022/06/06 06:39:13;;;;;;;;;1.67;1.00;;;;;20.52;50.15;101347.63;5090831;27;45425;-77
2022/06/06 06:41:51;;;;;;;;;1.00;1.00;;;;;20.54;50.27;101349.31;5091154;27;45612;-75
2022/06/06 06:44:33;;;;;;;;;1.67;1.67;;;;;20.54;50.40;101346.66;5101207;27;45554;-76
2022/06/06 06:47:24;;;;;;;;;2.00;2.00;;;;;20.59;50.01;101349.22;5102629;27;46701;-72
2022/06/06 06:50:22;;;;;;;;;1.00;1.00;;;;;20.65;49.92;101349.03;5095308;27;45425;-75
2022/06/06 06:53:12;;;;;;;;;1.00;1.00;;;;;20.35;49.58;101297.56;5109137;27;45471;-74
2022/06/06 06:55:59;;;;;;;;;2.00;2.00;;;;;20.81;49.70;101352.13;5099197;27;45479;-72
2022/06/06 06:58:37;;;;;;;;;3.00;3.00;;;;;20.93;49.78;101345.53;5094620;27;45771;-76
2022/06/06 07:01:12;;;;;;;;;2.00;2.00;;;;;20.98;49.17;101343.59;5098357;27;45459;-75
2022/06/06 07:10:15;;;;;;;;;1.00;1.00;;;;;21.01;48.93;101354.16;5099238;27;45536;-77
2022/06/06 07:13:26;;;;;;;;;3.33;3.33;;;;;21.09;48.93;101340.56;5097436;27;45425;-76
2022/06/06 07:16:01;;;;;;;;;2.00;2.00;;;;;21.06;48.39;101317.59;5051063;28;45725;-76
2022/06/06 07:18:32;;;;;;;;;3.00;2.00;;;;;21.17;47.83;101328.75;5090243;27;45364;-75
2022/06/06 07:21:01;;;;;;;;;1.00;1.00;;;;;21.09;47.95;101327.25;5096986;27;45367;-78
2022/06/06 07:23:33;;;;;;;;;1.00;1.00;;;;;21.26;48.04;101345.34;5100791;27;45555;-76
2022/06/06 07:26:05;;;;;;;;;2.33;1.00;;;;;21.18;46.79;101333.16;5100293;27;45410;-78
2022/06/06 07:28:33;;;;;;;;;1.00;1.00;;;;;21.16;47.34;101337.66;5099915;27;47475;-75
2022/06/06 07:31:16;;;;;;;;;1.00;1.00;;;;;20.86;47.82;101294.28;5099872;27;45422;-77
2022/06/06 07:34:04;;;;;;;;;2.67;1.33;;;;;20.99;47.77;101339.13;5091851;27;46106;-75
2022/06/06 07:36:51;;;;;;;;;1.00;1.00;;;;;20.91;47.96;101336.72;5097961;27;45491;-77
2022/06/06 07:39:35;;;;;;;;;4.00;2.00;;;;;20.80;48.34;101336.19;5097858;27;45507;-78
2022/06/06 07:42:15;;;;;;;;;3.33;1.67;;;;;20.70;49.02;101331.13;5096378;27;45269;-76
2022/06/06 07:45:06;;;;;;;;;2.00;1.00;;;;;20.88;48.88;101334.13;5099138;27;45446;-77
2022/06/06 07:47:57;;;;;;;;;2.67;2.67;;;;;21.06;48.39;101324.72;5098290;27;45626;-77
2022/06/06 07:50:42;;;;;;;;;1.67;1.67;;;;;21.08;47.50;101313.09;5087766;27;46262;-78
2022/06/06 07:53:55;;;;;;;;;1.00;1.00;;;;;21.32;47.66;101324.72;5093068;27;45812;-76
2022/06/06 07:57:09;;;;;;;;;1.67;1.67;;;;;21.39;47.08;101325.38;5088029;27;45475;-75
2022/06/06 08:00:06;;;;;;;;;1.00;1.00;;;;;21.35;46.74;101324.59;5094605;27;45518;-77
2022/06/06 08:02:50;;;;;;;;;2.00;2.00;;;;;21.49;46.79;101316.19;5094346;27;46048;-78
2022/06/06 08:05:43;;;;;;;;;1.33;1.33;;;;;21.49;46.63;101318.84;5095261;27;46418;-76
2022/06/06 08:08:30;;;;;;;;;3.00;1.00;;;;;21.50;46.96;101320.59;5095774;27;46610;-75
2022/06/06 08:11:05;;;;;;;;;2.67;2.00;;;;;21.01;47.26;101234.31;5097368;27;45565;-77
2022/06/06 08:13:47;;;;;;;;;2.00;1.00;;;;;21.60;46.72;101319.34;5102501;27;47603;-78
2022/06/06 08:16:23;;;;;;;;;1.00;1.00;;;;;21.74;45.93;101310.00;5093750;27;45353;-77
2022/06/06 08:18:52;;;;;;;;;1.00;1.00;;;;;21.88;46.15;101318.38;5098617;27;45494;-77
2022/06/06 08:21:35;;;;;;;;;4.00;1.00;;;;;21.84;45.88;101278.56;5100905;27;45466;-74
2022/06/06 08:24:05;;;;;;;;;1.00;1.00;;;;;22.14;44.64;101313.88;5093975;27;45353;-76
2022/06/06 08:26:37;;;;;;;;;1.00;1.00;;;;;22.25;45.11;101305.53;5094294;27;45511;-75
2022/06/06 08:29:06;;;;;;;;;1.00;1.00;;;;;21.84;43.52;101212.75;5100990;27;45630;-77
2022/06/06 08:31:32;;;;;;;;;2.67;1.00;;;;;22.00;43.99;101229.94;5085626;27;45658;-76
2022/06/06 08:33:57;;;;;;;;;1.00;0.33;;;;;22.11;43.94;101245.50;5102918;27;46284;-77
2022/06/06 08:36:47;;;;;;;;;1.00;1.00;;;;;22.53;42.99;101294.66;5101770;27;45447;-75
2022/06/06 08:39:25;;;;;;;;;1.00;1.00;;;;;22.73;43.42;101308.09;5082219;27;46000;-78
2022/06/06 08:42:19;;;;;;;;;1.67;1.67;;;;;22.74;42.79;101300.97;5093639;27;45544;-75
2022/06/06 08:45:23;;;;;;;;;0.33;0.00;;;;;22.70;42.65;101299.34;5131399;27;45602;-73
2022/06/06 08:48:11;;;;;;;;;3.67;1.00;;;;;22.48;43.08;101240.59;5113092;27;45632;-76
2022/06/06 08:51:14;;;;;;;;;3.00;1.00;;;;;22.88;43.00;101292.41;5097876;27;45361;-73
2022/06/06 08:53:58;;;;;;;;;1.00;1.00;;;;;22.99;42.43;101292.84;5098297;27;45344;-70
2022/06/06 08:56:44;;;;;;;;;0.33;0.33;;;;;23.02;42.64;101292.75;5094882;27;45574;-73
2022/06/06 08:59:24;;;;;;;;;1.00;1.00;;;;;23.13;41.48;101293.13;5095583;27;46638;-72
2022/06/06 09:02:12;;;;;;;;;1.00;1.00;;;;;23.22;41.31;101292.75;5087902;27;45547;-73
2022/06/06 09:05:09;;;;;;;;;1.00;1.00;;;;;22.88;41.83;101247.00;5097632;27;45499;-72
2022/06/06 09:07:50;;;;;;;;;2.00;1.00;;;;;23.20;41.12;101297.28;5110021;27;47282;-76
2022/06/06 09:10:34;;;;;;;;;1.00;1.00;;;;;23.13;41.27;101297.63;5091409;27;45709;-72
2022/06/06 09:13:08;;;;;;;;;0.00;0.00;;;;;23.00;41.08;101299.94;5092643;27;45487;-76
2022/06/06 09:15:40;;;;;;;;;1.00;1.00;;;;;23.11;41.36;101305.69;5083444;27;45630;-72
2022/06/06 09:18:31;;;;;;;;;0.50;0.00;;;;;23.21;40.88;101299.06;5098148;27;46055;-72
2022/06/06 09:21:24;;;;;;;;;0.67;0.67;;;;;23.26;40.82;101296.19;5097650;27;45497;-71
2022/06/06 09:24:04;;;;;;;;;1.00;1.00;;;;;23.27;40.53;101303.25;5090258;27;45372;-75
2022/06/06 09:26:40;;;;;;;;;0.00;0.00;;;;;23.13;41.14;101289.59;5098033;27;45426;-72
2022/06/06 09:29:27;;;;;;;;;1.00;0.00;;;;;23.14;41.73;101297.56;5096982;27;45364;-71
2022/06/06 09:32:18;;;;;;;;;2.67;1.00;;;;;23.01;40.14;101272.28;5089973;27;45551;-70
2022/06/06 09:35:01;;;;;;;;;1.00;1.00;;;;;23.07;40.58;101293.41;5078598;27;45499;-72
2022/06/06 09:38:04;;;;;;;;;0.00;0.00;;;;;23.12;40.84;101298.56;5113021;27;45489;-71
2022/06/06 09:40:43;;;;;;;;;1.00;1.00;;;;;23.06;41.50;101289.88;5096204;27;46605;-75
2022/06/06 09:43:34;;;;;;;;;1.00;1.00;;;;;22.95;40.49;101254.69;5096617;27;45458;-76
2022/06/06 09:46:18;;;;;;;;;1.00;1.00;;;;;23.23;39.58;101289.19;5093288;27;45505;-73
2022/06/06 09:48:52;;;;;;;;;1.00;1.00;;;;;23.18;39.80;101284.94;5089762;27;45479;-75
2022/06/06 09:52:00;;;;;;;;;1.00;1.00;;;;;23.07;39.90;101290.75;5095195;27;48001;-76
2022/06/06 10:01:16;;;;;;;;;1.00;1.00;;;;;22.94;39.32;101282.31;5095433;27;45440;-76
2022/06/06 10:04:07;;;;;;;;;4.00;3.00;;;;;22.91;39.45;101284.25;5105522;27;47049;-76
2022/06/06 10:07:04;;;;;;;;;2.00;2.00;;;;;22.88;39.89;101279.06;5098106;27;45612;-76
2022/06/06 10:09:39;;;;;;;;;1.00;1.00;;;;;22.91;40.01;101282.44;5097416;27;45483;-75
2022/06/06 10:12:38;;;;;;;;;1.00;1.00;;;;;23.00;39.93;101284.78;5096937;27;45306;-76
2022/06/06 10:15:15;;;;;;;;;1.33;1.00;;;;;22.60;39.88;101221.41;5085998;27;46184;-74
2022/06/06 10:17:59;;;;;;;;;1.67;1.67;;;;;22.89;39.94;101283.44;5085415;27;45404;-77
2022/06/06 10:20:42;;;;;;;;;1.00;1.00;;;;;22.78;39.53;101265.16;5100784;27;45449;-79
2022/06/06 10:23:25;;;;;;;;;2.00;0.67;;;;;22.91;39.41;101266.41;5115693;27;45377;-77
2022/06/06 10:26:14;;;;;;;;;1.00;1.00;;;;;23.19;39.36;101298.25;5099694;27;45662;-77
2022/06/06 10:29:08;;;;;;;;;1.00;1.00;;;;;23.28;39.37;101297.00;5092841;27;45603;-77
2022/06/06 10:31:52;;;;;;;;;1.00;1.00;;;;;23.40;38.78;101292.94;5097760;27;45504;-74
2022/06/06 10:34:54;;;;;;;;;1.00;1.00;;;;;23.38;38.79;101284.09;5095521;27;45526;-76
2022/06/06 10:37:40;;;;;;;;;1.00;1.00;;;;;23.23;38.95;101291.84;5099045;27;45872;-74
2022/06/06 10:40:40;;;;;;;;;1.00;1.00;;;;;23.22;39.22;101300.78;5098929;27;45800;-75
2022/06/06 10:43:21;;;;;;;;;0.00;0.00;;;;;22.99;39.01;101263.47;5088912;27;45420;-72
2022/06/06 10:45:58;;;;;;;;;1.00;1.00;;;;;23.00;38.82;101273.22;5099253;27;45596;-78
2022/06/06 10:48:47;;;;;;;;;1.00;1.00;;;;;23.01;39.09;101273.16;5098585;27;46658;-77
2022/06/06 10:51:55;;;;;;;;;1.00;1.00;;;;;23.05;38.75;101282.78;5096604;27;45492;-76
2022/06/06 10:54:44;;;;;;;;;1.33;1.33;;;;;22.99;38.41;101295.50;5099321;27;45484;-76
2022/06/06 10:57:38;;;;;;;;;1.00;1.00;;;;;22.90;38.74;101290.50;5099863;27;45359;-77
2022/06/06 11:00:13;;;;;;;;;2.00;2.00;;;;;22.88;39.08;101281.72;5090999;27;45450;-76
2022/06/06 11:03:13;;;;;;;;;1.00;1.00;;;;;22.82;38.93;101291.69;5077576;27;45550;-75
2022/06/06 11:06:00;;;;;;;;;1.00;1.00;;;;;22.92;39.00;101276.19;5089492;27;45381;-76
2022/06/06 11:08:28;;;;;;;;;2.00;2.00;;;;;23.04;38.91;101286.41;5099739;27;45841;-78
2022/06/06 11:11:19;;;;;;;;;1.00;1.00;;;;;23.22;38.43;101271.38;5094719;27;46897;-76
2022/06/06 11:13:47;;;;;;;;;1.50;0.00;;;;;23.47;37.51;101279.25;5112432;27;45422;-74
2022/06/06 11:16:55;;;;;;;;;0.00;0.00;;;;;23.26;37.33;101213.34;5103544;27;45375;-77
2022/06/06 11:19:41;;;;;;;;;0.00;0.00;;;;;23.57;36.84;101278.84;5099747;27;45490;-77
2022/06/06 11:22:25;;;;;;;;;0.00;0.00;;;;;23.43;37.17;101282.09;5099226;27;45753;-73
2022/06/06 11:25:15;;;;;;;;;0.50;0.50;;;;;23.07;36.83;101230.16;5098566;27;45344;-77
2022/06/06 11:28:08;;;;;;;;;1.00;0.00;;;;;23.41;37.24;101279.50;5094176;27;46105;-77
2022/06/06 11:31:25;;;;;;;;;2.00;2.00;;;;;23.43;37.15;101271.41;5099124;27;45464;-77
2022/06/06 11:34:15;;;;;;;;;16.67;16.00;;;;;23.39;37.29;101270.66;5052547;27;45600;-72
2022/06/06 11:36:58;;;;;;;;;8.33;8.33;;;;;23.42;37.13;101273.22;5098366;27;45606;-73
2022/06/06 11:39:54;;;;;;;;;7.33;7.33;;;;;23.54;36.34;101274.50;5099373;27;45318;-73
2022/06/06 11:42:48;;;;;;;;;34.67;32.67;;;;;23.74;35.32;101268.28;5099817;27;45531;-78
2022/06/06 11:45:35;;;;;;;;;30.33;27.00;;;;;23.82;35.27;101265.25;5087389;27;46841;-77
2022/06/06 11:48:01;;;;;;;;;59.00;44.25;;;;;23.81;37.26;101280.44;5098766;27;45439;-74
2022/06/06 11:50:42;;;;;;;;;20.33;15.00;;;;;23.80;34.36;101272.47;5099150;27;45577;-78
2022/06/06 11:53:33;;;;;;;;;19.33;18.33;;;;;23.73;35.75;101285.25;5099484;27;45610;-71
2022/06/06 11:56:15;;;;;;;;;45.25;36.50;;;;;23.57;34.72;101263.66;5098597;27;45319;-77
2022/06/06 11:58:59;;;;;;;;;80.25;70.00;;;;;23.60;38.00;101266.19;5098633;27;45358;-74
2022/06/06 12:01:34;;;;;;;;;31.67;30.00;;;;;23.77;35.49;101275.31;5099338;27;45394;-78
2022/06/06 12:04:17;;;;;;;;;22.00;22.00;;;;;23.85;35.46;101252.63;5089615;27;45417;-76
2022/06/06 12:07:07;;;;;;;;;32.33;29.33;;;;;23.99;35.42;101259.16;5099059;27;46639;-79
2022/06/06 12:09:47;;;;;;;;;5.67;5.67;;;;;23.94;34.64;101256.69;5099062;27;45584;-79
2022/06/06 12:12:45;;;;;;;;;22.00;20.67;;;;;23.94;35.56;101263.84;5099083;27;45456;-78
2022/06/06 12:15:11;;;;;;;;;40.33;34.00;;;;;23.91;36.01;101252.34;5084636;27;45353;-75
2022/06/06 12:18:21;;;;;;;;;28.67;26.33;;;;;23.90;36.33;101263.13;5099382;27;45344;-79
2022/06/06 12:21:17;;;;;;;;;17.00;15.00;;;;;23.81;35.92;101261.72;5080309;27;45440;-76
2022/06/06 12:23:51;;;;;;;;;21.67;19.67;;;;;23.81;37.38;101260.88;5098236;27;45447;-77
2022/06/06 12:26:43;;;;;;;;;37.67;33.33;;;;;23.85;41.90;101259.81;5089509;27;45578;-75
2022/06/06 12:29:29;;;;;;;;;32.33;30.33;;;;;23.76;40.45;101228.13;5104465;27;47456;-77
2022/06/06 12:32:27;;;;;;;;;33.33;27.33;;;;;24.06;38.78;101256.16;5103569;27;45298;-77
2022/06/06 12:35:16;;;;;;;;;29.67;26.67;;;;;24.13;38.56;101240.66;5102624;27;45481;-75
2022/06/06 12:38:05;;;;;;;;;22.00;20.67;;;;;24.04;36.96;101204.50;5098330;27;45654;-73
2022/06/06 12:40:58;;;;;;;;;20.00;16.00;;;;;24.44;37.75;101239.19;5098156;27;46237;-74
2022/06/06 12:43:54;;;;;;;;;16.33;15.67;;;;;24.44;37.99;101212.41;5087671;27;45228;-76
2022/06/06 12:46:46;;;;;;;;;17.33;17.33;;;;;24.58;38.08;101227.84;5096864;27;45472;-78
2022/06/06 12:49:17;;;;;;;;;26.33;22.00;;;;;24.70;38.81;101235.28;5111409;27;45537;-74
2022/06/06 12:52:17;;;;;;;;;12.00;12.00;;;;;24.94;37.64;101236.75;5099568;27;45498;-75